sensor_id;sensor_type;location;lat;lon;timestamp;temperature;humidity
3940;DHT22;1984;48.312;9.244;2024-02-16T00:01:54;6.80;99.90
3940;DHT22;1984;48.312;9.244;2024-02-16T00:04:20;6.70;99.90
3940;DHT22;1984;48.312;9.244;2024-02-16T00:06:45;6.70;99.90
3940;DHT22;1984;48.312;9.244;2024-02-16T00:09:10;6.70;99.90
3940;DHT22;1984;48.312;9.244;2024-02-16T00:11:37;6.60;99.90
3940;DHT22;1984;48.312;9.244;2024-02-16T00:14:02;6.70;99.90
3940;DHT22;1984;48.312;9.244;2024-02-16T00:16:27;6.60;99.90
3940;DHT22;1984;48.312;9.244;2024-02-16T00:18:53;6.60;99.90
3940;DHT22;1984;48.312;9.244;2024-02-16T00:21:18;6.60;99.90
3940;DHT22;1984;48.312;9.244;2024-02-16T00:23:45;6.60;99.90
3940;DHT22;1984;48.312;9.244;2024-02-16T00:26:10;6.70;99.90
3940;DHT22;1984;48.312;9.244;2024-02-16T00:28:36;6.70;99.90
3940;DHT22;1984;48.312;9.244;2024-02-16T00:31:01;6.70;99.90
3940;DHT22;1984;48.312;9.244;2024-02-16T00:33:27;6.70;99.90
3940;DHT22;1984;48.312;9.244;2024-02-16T00:35:54;6.70;99.90
3940;DHT22;1984;48.312;9.244;2024-02-16T00:38:20;6.60;99.90
3940;DHT22;1984;48.312;9.244;2024-02-16T00:40:45;6.60;99.90
3940;DHT22;1984;48.312;9.244;2024-02-16T00:43:11;6.60;99.90
3940;DHT22;1984;48.312;9.244;2024-02-16T00:45:37;6.70;99.90
3940;DHT22;1984;48.312;9.244;2024-02-16T00:48:03;6.70;99.90
3940;DHT22;1984;48.312;9.244;2024-02-16T00:50:29;6.70;99.90
3940;DHT22;1984;48.312;9.244;2024-02-16T00:52:54;6.80;99.90
3940;DHT22;1984;48.312;9.244;2024-02-16T00:55:20;6.80;99.90
3940;DHT22;1984;48.312;9.244;2024-02-16T00:57:45;6.80;99.90
3940;DHT22;1984;48.312;9.244;2024-02-16T01:00:11;6.80;99.90
3940;DHT22;1984;48.312;9.244;2024-02-16T01:02:37;6.70;99.90
3940;DHT22;1984;48.312;9.244;2024-02-16T01:05:03;6.70;99.90
3940;DHT22;1984;48.312;9.244;2024-02-16T01:07:28;6.70;99.90
3940;DHT22;1984;48.312;9.244;2024-02-16T01:09:55;6.70;99.90
3940;DHT22;1984;48.312;9.244;2024-02-16T01:12:22;6.80;99.90
3940;DHT22;1984;48.312;9.244;2024-02-16T01:14:47;6.80;99.90
3940;DHT22;1984;48.312;9.244;2024-02-16T01:17:12;6.80;99.90
3940;DHT22;1984;48.312;9.244;2024-02-16T01:19:38;6.80;99.90
3940;DHT22;1984;48.312;9.244;2024-02-16T01:22:04;6.80;99.90
3940;DHT22;1984;48.312;9.244;2024-02-16T01:24:29;6.80;99.90
3940;DHT22;1984;48.312;9.244;2024-02-16T01:26:55;6.80;99.90
3940;DHT22;1984;48.312;9.244;2024-02-16T01:29:20;6.80;99.90
3940;DHT22;1984;48.312;9.244;2024-02-16T01:31:46;6.80;99.90
3940;DHT22;1984;48.312;9.244;2024-02-16T01:34:11;6.80;99.90
3940;DHT22;1984;48.312;9.244;2024-02-16T01:36:37;6.80;99.90
3940;DHT22;1984;48.312;9.244;2024-02-16T01:39:02;6.80;99.90
3940;DHT22;1984;48.312;9.244;2024-02-16T01:41:28;6.80;99.90
3940;DHT22;1984;48.312;9.244;2024-02-16T01:43:54;6.90;99.90
3940;DHT22;1984;48.312;9.244;2024-02-16T01:46:20;6.90;99.90
3940;DHT22;1984;48.312;9.244;2024-02-16T01:48:46;6.90;99.90
3940;DHT22;1984;48.312;9.244;2024-02-16T01:51:12;6.90;99.90
3940;DHT22;1984;48.312;9.244;2024-02-16T01:53:39;6.90;99.90
3940;DHT22;1984;48.312;9.244;2024-02-16T01:56:06;6.80;99.90
3940;DHT22;1984;48.312;9.244;2024-02-16T01:58:31;6.70;99.90
3940;DHT22;1984;48.312;9.244;2024-02-16T02:00:57;6.70;99.90
3940;DHT22;1984;48.312;9.244;2024-02-16T02:03:22;6.70;99.90
3940;DHT22;1984;48.312;9.244;2024-02-16T02:05:48;6.70;99.90
3940;DHT22;1984;48.312;9.244;2024-02-16T02:08:15;6.70;99.90
3940;DHT22;1984;48.312;9.244;2024-02-16T02:10:42;6.70;99.90
3940;DHT22;1984;48.312;9.244;2024-02-16T02:13:07;6.60;99.90
3940;DHT22;1984;48.312;9.244;2024-02-16T02:15:33;6.50;99.90
3940;DHT22;1984;48.312;9.244;2024-02-16T02:17:59;6.50;99.90
3940;DHT22;1984;48.312;9.244;2024-02-16T02:20:25;6.40;99.90
3940;DHT22;1984;48.312;9.244;2024-02-16T02:22:50;6.40;99.90
3940;DHT22;1984;48.312;9.244;2024-02-16T02:25:16;6.40;99.90
3940;DHT22;1984;48.312;9.244;2024-02-16T02:27:41;6.40;99.90
3940;DHT22;1984;48.312;9.244;2024-02-16T02:30:08;6.40;99.90
3940;DHT22;1984;48.312;9.244;2024-02-16T02:32:33;6.50;99.90
3940;DHT22;1984;48.312;9.244;2024-02-16T02:34:59;6.40;99.90
3940;DHT22;1984;48.312;9.244;2024-02-16T02:37:24;6.50;99.90
3940;DHT22;1984;48.312;9.244;2024-02-16T02:39:50;6.50;99.90
3940;DHT22;1984;48.312;9.244;2024-02-16T02:42:16;6.40;99.90
3940;DHT22;1984;48.312;9.244;2024-02-16T02:44:41;6.30;99.90
3940;DHT22;1984;48.312;9.244;2024-02-16T02:47:14;6.20;99.90
3940;DHT22;1984;48.312;9.244;2024-02-16T02:49:40;6.20;99.90
3940;DHT22;1984;48.312;9.244;2024-02-16T02:52:05;6.10;99.90
3940;DHT22;1984;48.312;9.244;2024-02-16T02:54:32;6.20;99.90
3940;DHT22;1984;48.312;9.244;2024-02-16T02:56:57;6.20;99.90
3940;DHT22;1984;48.312;9.244;2024-02-16T02:59:23;6.20;99.90
3940;DHT22;1984;48.312;9.244;2024-02-16T03:01:48;6.20;99.90
3940;DHT22;1984;48.312;9.244;2024-02-16T03:04:14;6.30;99.90
3940;DHT22;1984;48.312;9.244;2024-02-16T03:06:39;6.30;99.90
3940;DHT22;1984;48.312;9.244;2024-02-16T03:09:04;6.40;99.90
3940;DHT22;1984;48.312;9.244;2024-02-16T03:11:30;6.40;99.90
3940;DHT22;1984;48.312;9.244;2024-02-16T03:13:56;6.50;99.90
3940;DHT22;1984;48.312;9.244;2024-02-16T03:16:21;6.50;99.90
3940;DHT22;1984;48.312;9.244;2024-02-16T03:18:47;6.50;99.90
3940;DHT22;1984;48.312;9.244;2024-02-16T03:21:15;6.50;99.90
3940;DHT22;1984;48.312;9.244;2024-02-16T03:23:43;6.50;99.90
3940;DHT22;1984;48.312;9.244;2024-02-16T03:26:16;6.40;99.90
3940;DHT22;1984;48.312;9.244;2024-02-16T03:28:48;6.50;99.90
3940;DHT22;1984;48.312;9.244;2024-02-16T03:31:17;6.40;99.90
3940;DHT22;1984;48.312;9.244;2024-02-16T03:33:43;6.40;99.90
3940;DHT22;1984;48.312;9.244;2024-02-16T03:36:09;6.20;99.90
3940;DHT22;1984;48.312;9.244;2024-02-16T03:38:35;6.20;99.90
3940;DHT22;1984;48.312;9.244;2024-02-16T03:41:00;6.20;99.90
3940;DHT22;1984;48.312;9.244;2024-02-16T03:43:26;6.20;99.90
3940;DHT22;1984;48.312;9.244;2024-02-16T03:45:51;6.30;99.90
3940;DHT22;1984;48.312;9.244;2024-02-16T03:48:17;6.30;99.90
3940;DHT22;1984;48.312;9.244;2024-02-16T03:50:43;6.30;99.90
3940;DHT22;1984;48.312;9.244;2024-02-16T03:53:08;6.40;99.90
3940;DHT22;1984;48.312;9.244;2024-02-16T03:55:33;6.40;99.90
3940;DHT22;1984;48.312;9.244;2024-02-16T03:58:02;6.50;99.90
3940;DHT22;1984;48.312;9.244;2024-02-16T04:00:28;6.60;99.90
3940;DHT22;1984;48.312;9.244;2024-02-16T04:02:53;6.60;99.90
3940;DHT22;1984;48.312;9.244;2024-02-16T04:05:19;6.60;99.90
3940;DHT22;1984;48.312;9.244;2024-02-16T04:07:44;6.60;99.90
3940;DHT22;1984;48.312;9.244;2024-02-16T04:10:10;6.70;99.90
3940;DHT22;1984;48.312;9.244;2024-02-16T04:12:35;6.70;99.90
3940;DHT22;1984;48.312;9.244;2024-02-16T04:15:02;6.80;99.90
3940;DHT22;1984;48.312;9.244;2024-02-16T04:17:28;6.80;99.90
3940;DHT22;1984;48.312;9.244;2024-02-16T04:19:53;6.80;99.90
3940;DHT22;1984;48.312;9.244;2024-02-16T04:22:19;6.90;99.90
3940;DHT22;1984;48.312;9.244;2024-02-16T04:24:44;6.90;99.90
3940;DHT22;1984;48.312;9.244;2024-02-16T04:27:10;6.90;99.90
3940;DHT22;1984;48.312;9.244;2024-02-16T04:29:35;6.90;99.90
3940;DHT22;1984;48.312;9.244;2024-02-16T04:32:01;6.80;99.90
3940;DHT22;1984;48.312;9.244;2024-02-16T04:34:26;6.80;99.90
3940;DHT22;1984;48.312;9.244;2024-02-16T04:36:52;6.70;99.90
3940;DHT22;1984;48.312;9.244;2024-02-16T04:39:17;6.70;99.90
3940;DHT22;1984;48.312;9.244;2024-02-16T04:41:44;6.70;99.90
3940;DHT22;1984;48.312;9.244;2024-02-16T04:44:10;6.70;99.90
3940;DHT22;1984;48.312;9.244;2024-02-16T04:46:36;6.70;99.90
3940;DHT22;1984;48.312;9.244;2024-02-16T04:49:01;6.50;99.90
3940;DHT22;1984;48.312;9.244;2024-02-16T04:51:27;6.50;99.90
3940;DHT22;1984;48.312;9.244;2024-02-16T04:53:52;6.50;99.90
3940;DHT22;1984;48.312;9.244;2024-02-16T04:56:17;6.50;99.90
3940;DHT22;1984;48.312;9.244;2024-02-16T04:58:43;6.60;99.90
3940;DHT22;1984;48.312;9.244;2024-02-16T05:01:09;6.60;99.90
3940;DHT22;1984;48.312;9.244;2024-02-16T05:03:35;6.70;99.90
3940;DHT22;1984;48.312;9.244;2024-02-16T05:06:00;6.70;99.90
3940;DHT22;1984;48.312;9.244;2024-02-16T05:08:26;6.80;99.90
3940;DHT22;1984;48.312;9.244;2024-02-16T05:10:51;6.80;99.90
3940;DHT22;1984;48.312;9.244;2024-02-16T05:13:17;6.80;99.90
3940;DHT22;1984;48.312;9.244;2024-02-16T05:15:43;6.90;99.90
3940;DHT22;1984;48.312;9.244;2024-02-16T05:18:09;6.90;99.90
3940;DHT22;1984;48.312;9.244;2024-02-16T05:20:37;6.90;99.90
3940;DHT22;1984;48.312;9.244;2024-02-16T05:23:03;7.00;99.90
3940;DHT22;1984;48.312;9.244;2024-02-16T05:25:29;7.00;99.90
3940;DHT22;1984;48.312;9.244;2024-02-16T05:27:55;7.00;99.90
3940;DHT22;1984;48.312;9.244;2024-02-16T05:30:20;7.10;99.90
3940;DHT22;1984;48.312;9.244;2024-02-16T05:32:46;7.10;99.90
3940;DHT22;1984;48.312;9.244;2024-02-16T05:35:11;7.20;99.90
3940;DHT22;1984;48.312;9.244;2024-02-16T05:37:40;7.20;99.90
3940;DHT22;1984;48.312;9.244;2024-02-16T05:40:08;7.20;99.90
3940;DHT22;1984;48.312;9.244;2024-02-16T05:42:45;7.20;99.90
3940;DHT22;1984;48.312;9.244;2024-02-16T05:45:11;7.10;99.90
3940;DHT22;1984;48.312;9.244;2024-02-16T05:47:36;7.10;99.90
3940;DHT22;1984;48.312;9.244;2024-02-16T05:50:04;7.10;99.90
3940;DHT22;1984;48.312;9.244;2024-02-16T05:52:30;7.10;99.90
3940;DHT22;1984;48.312;9.244;2024-02-16T05:54:56;7.10;99.90
3940;DHT22;1984;48.312;9.244;2024-02-16T05:57:21;7.10;99.90
3940;DHT22;1984;48.312;9.244;2024-02-16T05:59:47;7.10;99.90
3940;DHT22;1984;48.312;9.244;2024-02-16T06:02:12;7.00;99.90
3940;DHT22;1984;48.312;9.244;2024-02-16T06:04:38;7.00;99.90
3940;DHT22;1984;48.312;9.244;2024-02-16T06:07:04;7.00;99.90
3940;DHT22;1984;48.312;9.244;2024-02-16T06:09:31;7.00;99.90
3940;DHT22;1984;48.312;9.244;2024-02-16T06:12:05;7.00;99.90
3940;DHT22;1984;48.312;9.244;2024-02-16T06:14:33;7.00;99.90
3940;DHT22;1984;48.312;9.244;2024-02-16T06:17:05;7.00;99.90
3940;DHT22;1984;48.312;9.244;2024-02-16T06:19:31;6.90;99.90
3940;DHT22;1984;48.312;9.244;2024-02-16T06:21:56;6.90;99.90
3940;DHT22;1984;48.312;9.244;2024-02-16T06:24:25;7.00;99.90
3940;DHT22;1984;48.312;9.244;2024-02-16T06:26:50;6.90;99.90
3940;DHT22;1984;48.312;9.244;2024-02-16T06:29:17;6.90;99.90
3940;DHT22;1984;48.312;9.244;2024-02-16T06:31:43;6.90;99.90
3940;DHT22;1984;48.312;9.244;2024-02-16T06:34:08;6.90;99.90
3940;DHT22;1984;48.312;9.244;2024-02-16T06:36:34;6.90;99.90
3940;DHT22;1984;48.312;9.244;2024-02-16T06:38:59;6.90;99.90
3940;DHT22;1984;48.312;9.244;2024-02-16T06:41:25;7.00;99.90
3940;DHT22;1984;48.312;9.244;2024-02-16T06:43:51;7.00;99.90
3940;DHT22;1984;48.312;9.244;2024-02-16T06:46:17;7.10;99.90
3940;DHT22;1984;48.312;9.244;2024-02-16T06:48:42;7.00;99.90
3940;DHT22;1984;48.312;9.244;2024-02-16T06:51:08;7.00;99.90
3940;DHT22;1984;48.312;9.244;2024-02-16T06:53:33;7.00;99.90
3940;DHT22;1984;48.312;9.244;2024-02-16T06:55:59;7.10;99.90
3940;DHT22;1984;48.312;9.244;2024-02-16T06:58:24;7.10;99.90
3940;DHT22;1984;48.312;9.244;2024-02-16T07:00:50;7.30;99.90
3940;DHT22;1984;48.312;9.244;2024-02-16T07:03:15;7.30;99.90
3940;DHT22;1984;48.312;9.244;2024-02-16T07:05:41;7.40;99.90
3940;DHT22;1984;48.312;9.244;2024-02-16T07:08:07;7.50;99.90
3940;DHT22;1984;48.312;9.244;2024-02-16T07:10:33;7.50;99.90
3940;DHT22;1984;48.312;9.244;2024-02-16T07:12:59;7.50;99.90
3940;DHT22;1984;48.312;9.244;2024-02-16T07:15:25;7.50;99.90
3940;DHT22;1984;48.312;9.244;2024-02-16T07:17:52;7.50;99.90
3940;DHT22;1984;48.312;9.244;2024-02-16T07:20:18;7.60;99.90
3940;DHT22;1984;48.312;9.244;2024-02-16T07:22:43;7.60;99.90
3940;DHT22;1984;48.312;9.244;2024-02-16T07:25:11;7.80;99.90
3940;DHT22;1984;48.312;9.244;2024-02-16T07:27:38;8.00;99.90
3940;DHT22;1984;48.312;9.244;2024-02-16T07:30:04;8.10;99.90
3940;DHT22;1984;48.312;9.244;2024-02-16T07:32:29;8.20;99.90
3940;DHT22;1984;48.312;9.244;2024-02-16T07:34:55;8.40;99.90
3940;DHT22;1984;48.312;9.244;2024-02-16T07:37:20;8.50;99.90
3940;DHT22;1984;48.312;9.244;2024-02-16T07:39:46;8.60;99.90
3940;DHT22;1984;48.312;9.244;2024-02-16T07:42:11;8.60;99.90
3940;DHT22;1984;48.312;9.244;2024-02-16T07:44:39;8.70;99.90
3940;DHT22;1984;48.312;9.244;2024-02-16T07:47:05;8.70;99.90
3940;DHT22;1984;48.312;9.244;2024-02-16T07:49:30;8.70;99.90
3940;DHT22;1984;48.312;9.244;2024-02-16T07:51:56;8.80;99.90
3940;DHT22;1984;48.312;9.244;2024-02-16T07:54:23;8.90;99.90
3940;DHT22;1984;48.312;9.244;2024-02-16T07:56:48;9.00;99.90
3940;DHT22;1984;48.312;9.244;2024-02-16T07:59:14;9.20;99.90
3940;DHT22;1984;48.312;9.244;2024-02-16T08:01:39;9.30;99.90
3940;DHT22;1984;48.312;9.244;2024-02-16T08:04:05;9.50;99.90
3940;DHT22;1984;48.312;9.244;2024-02-16T08:06:31;9.60;99.90
3940;DHT22;1984;48.312;9.244;2024-02-16T08:08:56;9.70;99.90
3940;DHT22;1984;48.312;9.244;2024-02-16T08:11:22;9.90;99.90
3940;DHT22;1984;48.312;9.244;2024-02-16T08:13:48;10.10;99.90
3940;DHT22;1984;48.312;9.244;2024-02-16T08:16:13;10.30;99.90
3940;DHT22;1984;48.312;9.244;2024-02-16T08:18:39;10.50;99.90
3940;DHT22;1984;48.312;9.244;2024-02-16T08:21:04;10.80;99.90
3940;DHT22;1984;48.312;9.244;2024-02-16T08:23:30;11.30;99.90
3940;DHT22;1984;48.312;9.244;2024-02-16T08:25:56;11.80;99.90
3940;DHT22;1984;48.312;9.244;2024-02-16T08:28:23;12.10;99.90
3940;DHT22;1984;48.312;9.244;2024-02-16T08:30:49;12.30;99.90
3940;DHT22;1984;48.312;9.244;2024-02-16T08:33:15;12.90;99.90
3940;DHT22;1984;48.312;9.244;2024-02-16T08:35:41;13.60;99.90
3940;DHT22;1984;48.312;9.244;2024-02-16T08:38:06;13.80;99.90
3940;DHT22;1984;48.312;9.244;2024-02-16T08:40:37;13.80;99.90
3940;DHT22;1984;48.312;9.244;2024-02-16T08:43:03;13.70;99.90
3940;DHT22;1984;48.312;9.244;2024-02-16T08:45:30;13.70;99.90
3940;DHT22;1984;48.312;9.244;2024-02-16T08:47:56;13.60;99.90
3940;DHT22;1984;48.312;9.244;2024-02-16T08:50:22;13.40;99.90
3940;DHT22;1984;48.312;9.244;2024-02-16T08:52:49;13.30;99.90
3940;DHT22;1984;48.312;9.244;2024-02-16T08:55:15;13.20;99.90
3940;DHT22;1984;48.312;9.244;2024-02-16T08:57:41;13.10;99.90
3940;DHT22;1984;48.312;9.244;2024-02-16T09:00:07;13.10;99.90
3940;DHT22;1984;48.312;9.244;2024-02-16T09:02:33;13.20;99.90
3940;DHT22;1984;48.312;9.244;2024-02-16T09:04:58;13.50;99.90
3940;DHT22;1984;48.312;9.244;2024-02-16T09:07:24;13.90;99.90
3940;DHT22;1984;48.312;9.244;2024-02-16T09:09:51;13.90;99.90
3940;DHT22;1984;48.312;9.244;2024-02-16T09:12:16;14.20;99.90
3940;DHT22;1984;48.312;9.244;2024-02-16T09:14:42;14.30;99.90
3940;DHT22;1984;48.312;9.244;2024-02-16T09:17:07;14.30;99.90
3940;DHT22;1984;48.312;9.244;2024-02-16T09:19:33;14.20;99.90
3940;DHT22;1984;48.312;9.244;2024-02-16T09:21:59;14.00;99.90
3940;DHT22;1984;48.312;9.244;2024-02-16T09:24:28;13.90;99.90
3940;DHT22;1984;48.312;9.244;2024-02-16T09:26:56;14.00;99.90
3940;DHT22;1984;48.312;9.244;2024-02-16T09:29:21;14.00;99.90
3940;DHT22;1984;48.312;9.244;2024-02-16T09:31:49;14.20;99.90
3940;DHT22;1984;48.312;9.244;2024-02-16T09:34:15;14.50;99.90
3940;DHT22;1984;48.312;9.244;2024-02-16T09:36:40;15.00;99.90
3940;DHT22;1984;48.312;9.244;2024-02-16T09:39:06;15.40;99.90
3940;DHT22;1984;48.312;9.244;2024-02-16T09:41:35;15.60;99.90
3940;DHT22;1984;48.312;9.244;2024-02-16T09:44:03;15.40;99.90
3940;DHT22;1984;48.312;9.244;2024-02-16T09:46:30;15.10;99.90
3940;DHT22;1984;48.312;9.244;2024-02-16T09:49:02;14.50;99.90
3940;DHT22;1984;48.312;9.244;2024-02-16T09:51:29;14.20;99.90
3940;DHT22;1984;48.312;9.244;2024-02-16T09:53:55;14.10;99.90
3940;DHT22;1984;48.312;9.244;2024-02-16T09:56:21;14.20;99.90
3940;DHT22;1984;48.312;9.244;2024-02-16T09:58:47;14.20;99.90
3940;DHT22;1984;48.312;9.244;2024-02-16T10:01:19;14.10;99.90
3940;DHT22;1984;48.312;9.244;2024-02-16T10:03:48;14.10;99.90
3940;DHT22;1984;48.312;9.244;2024-02-16T10:06:15;14.00;99.90
3940;DHT22;1984;48.312;9.244;2024-02-16T10:09:07;14.00;99.90
3940;DHT22;1984;48.312;9.244;2024-02-16T10:11:32;13.90;99.90
3940;DHT22;1984;48.312;9.244;2024-02-16T10:14:00;13.90;99.90
3940;DHT22;1984;48.312;9.244;2024-02-16T10:16:27;13.80;99.90
3940;DHT22;1984;48.312;9.244;2024-02-16T10:18:57;13.90;99.90
3940;DHT22;1984;48.312;9.244;2024-02-16T10:21:29;13.90;99.90
3940;DHT22;1984;48.312;9.244;2024-02-16T10:24:04;14.00;99.90
3940;DHT22;1984;48.312;9.244;2024-02-16T10:26:32;14.00;99.90
3940;DHT22;1984;48.312;9.244;2024-02-16T10:28:57;14.00;99.90
3940;DHT22;1984;48.312;9.244;2024-02-16T10:31:24;13.90;99.90
3940;DHT22;1984;48.312;9.244;2024-02-16T10:34:00;13.90;99.90
3940;DHT22;1984;48.312;9.244;2024-02-16T10:36:27;13.90;99.90
3940;DHT22;1984;48.312;9.244;2024-02-16T10:38:56;13.90;99.90
3940;DHT22;1984;48.312;9.244;2024-02-16T10:41:26;14.00;99.90
3940;DHT22;1984;48.312;9.244;2024-02-16T10:43:54;14.00;99.90
3940;DHT22;1984;48.312;9.244;2024-02-16T10:46:20;13.90;99.90
3940;DHT22;1984;48.312;9.244;2024-02-16T10:48:46;13.90;99.90
3940;DHT22;1984;48.312;9.244;2024-02-16T10:51:13;14.10;99.90
3940;DHT22;1984;48.312;9.244;2024-02-16T10:53:40;14.20;99.90
3940;DHT22;1984;48.312;9.244;2024-02-16T10:56:07;14.30;99.90
3940;DHT22;1984;48.312;9.244;2024-02-16T10:58:33;14.40;99.90
3940;DHT22;1984;48.312;9.244;2024-02-16T11:01:14;14.50;99.90
3940;DHT22;1984;48.312;9.244;2024-02-16T11:03:40;14.50;99.90
3940;DHT22;1984;48.312;9.244;2024-02-16T11:06:15;14.50;99.90
3940;DHT22;1984;48.312;9.244;2024-02-16T11:08:41;14.60;99.90
3940;DHT22;1984;48.312;9.244;2024-02-16T11:11:06;14.60;99.90
3940;DHT22;1984;48.312;9.244;2024-02-16T11:13:35;14.60;99.90
3940;DHT22;1984;48.312;9.244;2024-02-16T11:16:09;14.60;99.90
3940;DHT22;1984;48.312;9.244;2024-02-16T11:18:39;14.50;99.90
3940;DHT22;1984;48.312;9.244;2024-02-16T11:21:05;14.30;99.90
3940;DHT22;1984;48.312;9.244;2024-02-16T11:23:35;14.20;99.90
3940;DHT22;1984;48.312;9.244;2024-02-16T11:26:02;14.20;99.90
3940;DHT22;1984;48.312;9.244;2024-02-16T11:28:31;14.20;99.90
3940;DHT22;1984;48.312;9.244;2024-02-16T11:30:57;14.30;99.90
3940;DHT22;1984;48.312;9.244;2024-02-16T11:33:22;14.30;99.90
3940;DHT22;1984;48.312;9.244;2024-02-16T11:35:56;14.20;99.90
3940;DHT22;1984;48.312;9.244;2024-02-16T11:38:23;14.30;99.90
3940;DHT22;1984;48.312;9.244;2024-02-16T11:40:56;14.40;99.90
3940;DHT22;1984;48.312;9.244;2024-02-16T11:43:22;14.50;99.90
3940;DHT22;1984;48.312;9.244;2024-02-16T11:45:51;14.40;99.90
3940;DHT22;1984;48.312;9.244;2024-02-16T11:48:24;14.50;99.90
3940;DHT22;1984;48.312;9.244;2024-02-16T11:51:01;14.50;99.90
3940;DHT22;1984;48.312;9.244;2024-02-16T11:53:31;14.60;99.90
3940;DHT22;1984;48.312;9.244;2024-02-16T11:55:57;14.60;99.90
3940;DHT22;1984;48.312;9.244;2024-02-16T11:58:23;14.60;99.90
3940;DHT22;1984;48.312;9.244;2024-02-16T12:00:50;14.80;99.90
3940;DHT22;1984;48.312;9.244;2024-02-16T12:03:22;14.90;99.90
3940;DHT22;1984;48.312;9.244;2024-02-16T12:08:17;15.00;99.90
3940;DHT22;1984;48.312;9.244;2024-02-16T12:10:44;15.10;99.90
3940;DHT22;1984;48.312;9.244;2024-02-16T12:13:09;15.30;99.90
3940;DHT22;1984;48.312;9.244;2024-02-16T12:15:38;15.40;99.90
3940;DHT22;1984;48.312;9.244;2024-02-16T12:18:03;15.50;99.90
3940;DHT22;1984;48.312;9.244;2024-02-16T12:20:30;15.60;99.90
3940;DHT22;1984;48.312;9.244;2024-02-16T12:22:58;15.80;99.90
3940;DHT22;1984;48.312;9.244;2024-02-16T12:25:25;16.00;99.90
3940;DHT22;1984;48.312;9.244;2024-02-16T12:27:51;16.00;99.90
3940;DHT22;1984;48.312;9.244;2024-02-16T12:30:17;16.10;99.90
3940;DHT22;1984;48.312;9.244;2024-02-16T12:32:43;16.10;99.90
3940;DHT22;1984;48.312;9.244;2024-02-16T12:35:09;16.00;99.90
3940;DHT22;1984;48.312;9.244;2024-02-16T12:37:34;16.00;99.90
3940;DHT22;1984;48.312;9.244;2024-02-16T12:40:00;16.00;99.90
3940;DHT22;1984;48.312;9.244;2024-02-16T12:42:27;16.00;99.90
3940;DHT22;1984;48.312;9.244;2024-02-16T12:44:52;15.80;99.90
3940;DHT22;1984;48.312;9.244;2024-02-16T12:47:18;15.70;99.90
3940;DHT22;1984;48.312;9.244;2024-02-16T12:49:43;15.60;99.90
3940;DHT22;1984;48.312;9.244;2024-02-16T12:52:09;15.50;99.90
3940;DHT22;1984;48.312;9.244;2024-02-16T12:54:34;15.40;99.90
3940;DHT22;1984;48.312;9.244;2024-02-16T12:57:00;15.30;99.90
3940;DHT22;1984;48.312;9.244;2024-02-16T12:59:25;15.30;99.90
3940;DHT22;1984;48.312;9.244;2024-02-16T13:01:51;15.20;99.90
3940;DHT22;1984;48.312;9.244;2024-02-16T13:04:17;15.20;99.90
3940;DHT22;1984;48.312;9.244;2024-02-16T13:06:47;15.20;99.90
3940;DHT22;1984;48.312;9.244;2024-02-16T13:09:12;15.20;99.90
3940;DHT22;1984;48.312;9.244;2024-02-16T13:11:38;15.20;99.90
3940;DHT22;1984;48.312;9.244;2024-02-16T13:14:05;15.20;99.90
3940;DHT22;1984;48.312;9.244;2024-02-16T13:16:32;15.30;99.90
3940;DHT22;1984;48.312;9.244;2024-02-16T13:18:57;15.30;99.90
3940;DHT22;1984;48.312;9.244;2024-02-16T13:21:23;15.30;99.90
3940;DHT22;1984;48.312;9.244;2024-02-16T13:23:48;15.40;99.90
3940;DHT22;1984;48.312;9.244;2024-02-16T13:26:14;15.40;99.90
3940;DHT22;1984;48.312;9.244;2024-02-16T13:28:40;15.30;99.90
3940;DHT22;1984;48.312;9.244;2024-02-16T13:31:05;15.30;99.90
3940;DHT22;1984;48.312;9.244;2024-02-16T13:33:31;15.40;99.90
3940;DHT22;1984;48.312;9.244;2024-02-16T13:35:56;15.50;99.90
3940;DHT22;1984;48.312;9.244;2024-02-16T13:38:22;15.50;99.90
3940;DHT22;1984;48.312;9.244;2024-02-16T13:40:47;15.50;99.90
3940;DHT22;1984;48.312;9.244;2024-02-16T13:43:14;15.40;99.90
3940;DHT22;1984;48.312;9.244;2024-02-16T13:46:06;15.20;99.90
3940;DHT22;1984;48.312;9.244;2024-02-16T13:48:32;15.10;99.90
3940;DHT22;1984;48.312;9.244;2024-02-16T13:50:58;15.10;99.90
3940;DHT22;1984;48.312;9.244;2024-02-16T13:53:25;15.10;99.90
3940;DHT22;1984;48.312;9.244;2024-02-16T13:55:50;15.00;99.90
3940;DHT22;1984;48.312;9.244;2024-02-16T13:58:16;15.00;99.90
3940;DHT22;1984;48.312;9.244;2024-02-16T14:00:42;15.00;99.90
3940;DHT22;1984;48.312;9.244;2024-02-16T14:03:10;15.00;99.90
3940;DHT22;1984;48.312;9.244;2024-02-16T14:05:37;14.90;99.90
3940;DHT22;1984;48.312;9.244;2024-02-16T14:08:04;15.00;99.90
3940;DHT22;1984;48.312;9.244;2024-02-16T14:10:30;14.90;99.90
3940;DHT22;1984;48.312;9.244;2024-02-16T14:12:57;14.90;99.90
3940;DHT22;1984;48.312;9.244;2024-02-16T14:15:23;14.90;99.90
3940;DHT22;1984;48.312;9.244;2024-02-16T14:17:48;14.90;99.90
3940;DHT22;1984;48.312;9.244;2024-02-16T14:20:14;14.90;99.90
3940;DHT22;1984;48.312;9.244;2024-02-16T14:22:40;14.80;99.90
3940;DHT22;1984;48.312;9.244;2024-02-16T14:25:05;14.80;99.90
3940;DHT22;1984;48.312;9.244;2024-02-16T14:27:31;14.80;99.90
3940;DHT22;1984;48.312;9.244;2024-02-16T14:29:58;14.80;99.90
3940;DHT22;1984;48.312;9.244;2024-02-16T14:32:23;14.80;99.90
3940;DHT22;1984;48.312;9.244;2024-02-16T14:34:49;14.80;99.90
3940;DHT22;1984;48.312;9.244;2024-02-16T14:37:14;14.80;99.90
3940;DHT22;1984;48.312;9.244;2024-02-16T14:39:40;14.80;99.90
3940;DHT22;1984;48.312;9.244;2024-02-16T14:42:05;14.80;99.90
3940;DHT22;1984;48.312;9.244;2024-02-16T14:44:31;14.80;99.90
3940;DHT22;1984;48.312;9.244;2024-02-16T14:46:56;14.80;99.90
3940;DHT22;1984;48.312;9.244;2024-02-16T14:49:22;14.70;99.90
3940;DHT22;1984;48.312;9.244;2024-02-16T14:51:50;14.70;99.90
3940;DHT22;1984;48.312;9.244;2024-02-16T14:54:18;14.60;99.90
3940;DHT22;1984;48.312;9.244;2024-02-16T14:56:43;14.50;99.90
3940;DHT22;1984;48.312;9.244;2024-02-16T14:59:09;14.40;99.90
3940;DHT22;1984;48.312;9.244;2024-02-16T15:01:36;14.40;99.90
3940;DHT22;1984;48.312;9.244;2024-02-16T15:04:03;14.30;99.90
3940;DHT22;1984;48.312;9.244;2024-02-16T15:06:28;14.30;99.90
3940;DHT22;1984;48.312;9.244;2024-02-16T15:08:54;14.20;99.90
3940;DHT22;1984;48.312;9.244;2024-02-16T15:11:20;14.20;99.90
3940;DHT22;1984;48.312;9.244;2024-02-16T15:13:45;14.10;99.90
3940;DHT22;1984;48.312;9.244;2024-02-16T15:16:11;14.00;99.90
3940;DHT22;1984;48.312;9.244;2024-02-16T15:18:36;14.00;99.90
3940;DHT22;1984;48.312;9.244;2024-02-16T15:21:02;14.00;99.90
3940;DHT22;1984;48.312;9.244;2024-02-16T15:23:27;13.90;99.90
3940;DHT22;1984;48.312;9.244;2024-02-16T15:25:53;13.90;99.90
3940;DHT22;1984;48.312;9.244;2024-02-16T15:28:18;13.90;99.90
3940;DHT22;1984;48.312;9.244;2024-02-16T15:30:44;13.80;99.90
3940;DHT22;1984;48.312;9.244;2024-02-16T15:33:10;13.80;99.90
3940;DHT22;1984;48.312;9.244;2024-02-16T15:35:36;13.80;99.90
3940;DHT22;1984;48.312;9.244;2024-02-16T15:38:02;13.90;99.90
3940;DHT22;1984;48.312;9.244;2024-02-16T15:40:27;13.90;99.90
3940;DHT22;1984;48.312;9.244;2024-02-16T15:43:03;13.80;99.90
3940;DHT22;1984;48.312;9.244;2024-02-16T15:45:31;13.90;99.90
3940;DHT22;1984;48.312;9.244;2024-02-16T15:47:56;13.80;99.90
3940;DHT22;1984;48.312;9.244;2024-02-16T15:50:22;13.80;99.90
3940;DHT22;1984;48.312;9.244;2024-02-16T15:52:49;13.80;99.90
3940;DHT22;1984;48.312;9.244;2024-02-16T15:55:14;13.80;99.90
3940;DHT22;1984;48.312;9.244;2024-02-16T15:57:40;13.70;99.90
3940;DHT22;1984;48.312;9.244;2024-02-16T16:00:06;13.70;99.90
3940;DHT22;1984;48.312;9.244;2024-02-16T16:02:32;13.70;99.90
3940;DHT22;1984;48.312;9.244;2024-02-16T16:04:58;13.70;99.90
3940;DHT22;1984;48.312;9.244;2024-02-16T16:07:23;13.60;99.90